Time;durP1;ratioP1;P1;durP2;ratioP2;P2;SDS_P1;SDS_P2;PMS_P1;PMS_P2;Temp;Humidity;BMP_temperature;BMP_pressure;BME280_temperature;BME280_humidity;BME280_pressure;Samples;Min_cycle;Max_cycle;Signal;HPM_P1;HPM_P2
2022/07/07 00:01:11;;;;;;;6.40;2.92;;;;;;;16.17;100.00;101729.38;5036946;28;20033;-74
2022/07/07 00:03:37;;;;;;;4.25;2.33;;;;;;;16.07;100.00;101712.72;5036855;28;20033;-74
2022/07/07 00:06:03;;;;;;;3.72;3.03;;;;;;;16.15;100.00;101715.41;5034727;28;20030;-73
2022/07/07 00:08:28;;;;;;;3.30;2.35;;;;;;;16.12;100.00;101707.75;5036352;28;20037;-73
2022/07/07 00:10:54;;;;;;;4.47;2.63;;;;;;;16.12;100.00;101702.44;5021610;28;20057;-73
2022/07/07 00:13:19;;;;;;;3.03;1.70;;;;;;;16.23;100.00;101712.75;5036047;28;20041;-73
2022/07/07 00:15:45;;;;;;;2.90;1.73;;;;;;;16.12;100.00;101683.78;5035499;28;20037;-73
2022/07/07 00:18:11;;;;;;;2.10;1.45;;;;;;;16.18;100.00;101699.13;5037924;28;20118;-73
2022/07/07 00:20:37;;;;;;;6.65;2.60;;;;;;;16.09;100.00;101678.78;5031620;28;20508;-73
2022/07/07 00:23:03;;;;;;;4.68;2.17;;;;;;;16.23;100.00;101692.28;5023179;28;20060;-73
2022/07/07 00:25:28;;;;;;;4.18;2.10;;;;;;;16.12;100.00;101673.16;5043309;28;20401;-74
2022/07/07 00:27:54;;;;;;;2.40;1.58;;;;;;;16.10;100.00;101680.47;5037179;28;20108;-73
2022/07/07 00:30:19;;;;;;;1.88;1.10;;;;;;;16.11;100.00;101671.47;5024716;28;20034;-73
2022/07/07 00:32:44;;;;;;;1.55;1.33;;;;;;;16.01;100.00;101659.16;5020346;28;20025;-72
2022/07/07 00:35:10;;;;;;;2.45;1.40;;;;;;;16.08;100.00;101658.50;5033602;28;20033;-73
2022/07/07 00:37:35;;;;;;;2.60;1.52;;;;;;;16.14;100.00;101671.16;5039378;28;20039;-73
2022/07/07 00:40:01;;;;;;;1.80;1.10;;;;;;;16.15;100.00;101672.78;5035770;28;20362;-73
2022/07/07 00:42:26;;;;;;;2.17;1.80;;;;;;;16.12;100.00;101668.66;5038917;28;20036;-73
2022/07/07 00:44:52;;;;;;;1.83;0.95;;;;;;;16.08;100.00;101685.94;5033580;28;20037;-73
2022/07/07 00:47:19;;;;;;;2.53;0.98;;;;;;;15.97;100.00;101672.97;5034674;28;20040;-73
2022/07/07 00:49:44;;;;;;;2.53;0.60;;;;;;;15.96;100.00;101664.16;5033824;28;20035;-74
2022/07/07 00:52:11;;;;;;;1.13;0.65;;;;;;;15.96;100.00;101661.50;5022040;28;20432;-73
2022/07/07 00:54:36;;;;;;;2.25;0.68;;;;;;;15.96;100.00;101652.66;5036812;28;20497;-74
2022/07/07 00:57:04;;;;;;;0.70;0.52;;;;;;;15.87;100.00;101641.16;5037289;28;20121;-74
2022/07/07 00:59:29;;;;;;;0.82;0.60;;;;;;;15.92;100.00;101646.84;5034979;28;20481;-74
2022/07/07 01:01:56;;;;;;;4.32;0.93;;;;;;;15.90;100.00;101650.66;5034965;28;20040;-74
2022/07/07 01:04:21;;;;;;;0.93;0.70;;;;;;;15.88;100.00;101648.16;5039010;28;20029;-74
2022/07/07 01:06:47;;;;;;;1.33;0.70;;;;;;;15.88;100.00;101650.81;5034579;28;20043;-73
2022/07/07 01:12:37;;;;;;;1.65;0.63;;;;;;;15.90;100.00;101650.66;5033595;28;20024;-74
2022/07/07 01:15:04;;;;;;;2.67;0.50;;;;;;;15.89;100.00;101646.31;5036023;28;20460;-74
2022/07/07 01:17:30;;;;;;;0.70;0.43;;;;;;;15.81;100.00;101636.53;5030891;28;20060;-74
2022/07/07 01:19:56;;;;;;;0.90;0.60;;;;;;;15.73;100.00;101623.22;5038352;28;20041;-73
2022/07/07 01:22:23;;;;;;;0.77;0.52;;;;;;;15.88;100.00;101640.19;5021678;28;20032;-73
2022/07/07 01:24:49;;;;;;;0.73;0.60;;;;;;;15.80;100.00;101626.84;5038686;28;20037;-74
2022/07/07 01:27:19;;;;;;;0.40;0.40;;;;;;;15.94;100.00;101636.88;5025571;28;20495;-73
2022/07/07 01:29:47;;;;;;;0.88;0.70;;;;;;;15.80;100.00;101616.22;5038389;28;20043;-74
2022/07/07 01:32:14;;;;;;;1.20;0.68;;;;;;;15.94;100.00;101628.88;5035933;28;20068;-74
2022/07/07 01:34:41;;;;;;;1.10;0.80;;;;;;;15.94;100.00;101617.38;5037034;28;20053;-75
2022/07/07 01:37:07;;;;;;;1.88;0.70;;;;;;;15.91;100.00;101618.53;5039043;28;20133;-74
2022/07/07 01:39:34;;;;;;;2.10;1.08;;;;;;;15.93;100.00;101619.22;5040373;28;20112;-74
2022/07/07 01:41:59;;;;;;;1.20;0.93;;;;;;;15.82;100.00;101595.59;5042050;28;20565;-73
2022/07/07 01:44:25;;;;;;;1.73;0.90;;;;;;;15.87;100.00;101606.56;5038006;28;20034;-73
2022/07/07 01:46:51;;;;;;;1.75;0.90;;;;;;;15.91;100.00;101607.06;5037679;28;20029;-73
2022/07/07 01:49:17;;;;;;;2.90;1.08;;;;;;;15.89;100.00;101601.91;5042196;28;20385;-73
2022/07/07 01:51:42;;;;;;;2.65;1.15;;;;;;;15.91;100.00;101594.59;5036876;28;20116;-73
2022/07/07 01:54:08;;;;;;;4.55;2.17;;;;;;;15.93;100.00;101597.91;5040229;28;20039;-73
2022/07/07 01:56:34;;;;;;;1.42;0.90;;;;;;;15.84;100.00;101588.28;5020003;28;20573;-73
2022/07/07 01:58:59;;;;;;;2.33;0.73;;;;;;;15.95;100.00;101608.41;5039730;28;20099;-73
2022/07/07 02:01:24;;;;;;;1.98;1.52;;;;;;;15.97;100.00;101601.91;5038373;28;20029;-75
2022/07/07 02:03:50;;;;;;;1.13;0.50;;;;;;;15.89;100.00;101585.09;5038071;28;20025;-74
2022/07/07 02:06:15;;;;;;;1.45;1.00;;;;;;;15.91;100.00;101597.25;5040878;28;20364;-74
2022/07/07 02:08:41;;;;;;;1.23;0.73;;;;;;;15.90;100.00;101594.78;5038443;28;20025;-74
2022/07/07 02:11:12;;;;;;;1.05;0.60;;;;;;;15.87;100.00;101593.25;5040364;28;20086;-75
2022/07/07 02:13:37;;;;;;;2.47;0.55;;;;;;;15.89;100.00;101591.25;5040377;28;20056;-74
2022/07/07 02:16:03;;;;;;;0.20;0.20;;;;;;;15.86;100.00;101583.63;5038944;28;20116;-74
2022/07/07 02:18:32;;;;;;;0.80;0.45;;;;;;;15.85;100.00;101576.63;5038968;28;20017;-74
2022/07/07 02:20:58;;;;;;;0.95;0.55;;;;;;;15.79;100.00;101564.00;5036449;28;20037;-74
2022/07/07 02:23:23;;;;;;;0.85;0.55;;;;;;;15.88;100.00;101568.31;5022939;28;20029;-74
2022/07/07 02:25:48;;;;;;;0.80;0.50;;;;;;;15.95;100.00;101568.47;5024502;28;20040;-75
2022/07/07 02:28:14;;;;;;;4.00;2.08;;;;;;;15.98;100.00;101568.13;5039432;28;20124;-73
2022/07/07 02:30:39;;;;;;;1.15;0.40;;;;;;;16.02;100.00;101567.63;5039359;28;20075;-73
2022/07/07 02:33:06;;;;;;;1.67;0.93;;;;;;;16.03;100.00;101569.28;5038253;28;20029;-73
2022/07/07 02:35:32;;;;;;;2.97;0.88;;;;;;;16.08;100.00;101565.31;5039546;28;20033;-73
2022/07/07 02:37:57;;;;;;;1.30;0.32;;;;;;;16.09;100.00;101580.25;5035670;28;20036;-73
2022/07/07 02:40:22;;;;;;;0.50;0.30;;;;;;;16.08;100.00;101575.94;5040355;28;20481;-73
2022/07/07 02:42:48;;;;;;;1.90;0.73;;;;;;;16.02;100.00;101567.63;5038189;28;20120;-73
2022/07/07 02:45:13;;;;;;;1.10;0.40;;;;;;;16.04;100.00;101568.28;5037101;28;20529;-73
2022/07/07 02:47:38;;;;;;;2.22;0.30;;;;;;;15.99;100.00;101551.16;5040517;28;20377;-73
2022/07/07 02:50:04;;;;;;;0.77;0.25;;;;;;;16.01;100.00;101550.00;5020167;28;20033;-73
2022/07/07 02:52:29;;;;;;;3.10;0.90;;;;;;;16.08;100.00;101557.31;5037244;28;20057;-73
2022/07/07 02:54:55;;;;;;;0.38;0.30;;;;;;;16.10;100.00;101555.31;5036904;28;20183;-73
2022/07/07 02:57:20;;;;;;;0.55;0.30;;;;;;;15.99;100.00;101528.03;5037872;28;20056;-74
2022/07/07 02:59:46;;;;;;;0.22;0.13;;;;;;;16.07;100.00;101532.53;5038849;28;20037;-73
2022/07/07 03:02:11;;;;;;;3.95;0.93;;;;;;;16.15;100.00;101542.31;5024344;28;20087;-75
2022/07/07 03:04:37;;;;;;;5.68;1.00;;;;;;;16.04;100.00;101538.16;5039704;28;20032;-75
2022/07/07 03:07:02;;;;;;;0.93;0.38;;;;;;;16.09;100.00;101540.31;5022505;28;20041;-75
2022/07/07 03:09:28;;;;;;;1.17;0.75;;;;;;;15.95;100.00;101529.38;5037321;28;20374;-74
2022/07/07 03:11:53;;;;;;;2.88;0.70;;;;;;;16.02;100.00;101546.31;5036160;28;20033;-74
2022/07/07 03:14:18;;;;;;;2.58;0.43;;;;;;;16.07;100.00;101563.63;5037652;28;20029;-74
2022/07/07 03:16:44;;;;;;;3.03;2.05;;;;;;;16.04;100.00;101572.78;5036531;28;20028;-74
2022/07/07 03:19:09;;;;;;;0.25;0.20;;;;;;;16.00;100.00;101584.75;5037987;28;20061;-74
2022/07/07 03:21:34;;;;;;;0.77;0.50;;;;;;;15.98;100.00;101579.63;5037568;28;20021;-74
2022/07/07 03:24:00;;;;;;;1.10;0.68;;;;;;;15.94;100.00;101580.09;5037134;28;20025;-74
2022/07/07 03:26:25;;;;;;;5.38;0.55;;;;;;;15.89;100.00;101580.59;5038027;28;20063;-74
2022/07/07 03:28:50;;;;;;;1.45;0.20;;;;;;;15.89;100.00;101575.28;5040268;28;20068;-75
2022/07/07 03:31:16;;;;;;;1.23;0.47;;;;;;;15.91;100.00;101569.81;5040938;28;20086;-75
2022/07/07 03:33:41;;;;;;;2.97;1.40;;;;;;;15.92;100.00;101568.81;5037308;28;20024;-74
2022/07/07 03:36:07;;;;;;;5.75;0.75;;;;;;;15.86;100.00;101578.28;5036682;28;20033;-74
2022/07/07 03:38:33;;;;;;;1.35;0.47;;;;;;;15.81;100.00;101585.94;5039051;28;20069;-74
2022/07/07 03:40:58;;;;;;;0.40;0.17;;;;;;;15.74;100.00;101580.47;5038455;28;20014;-74
2022/07/07 03:43:24;;;;;;;0.98;0.20;;;;;;;15.79;100.00;101575.47;5034041;28;20044;-74
2022/07/07 03:45:50;;;;;;;1.10;0.30;;;;;;;15.78;100.00;101575.63;5036944;28;20033;-74
2022/07/07 03:48:16;;;;;;;0.20;0.20;;;;;;;15.78;100.00;101575.63;5038242;28;20033;-75
2022/07/07 03:50:42;;;;;;;2.17;0.70;;;;;;;15.76;100.00;101574.97;5035979;28;20492;-74
2022/07/07 03:53:07;;;;;;;2.03;0.40;;;;;;;15.73;100.00;101577.97;5025057;28;20045;-74
2022/07/07 03:55:33;;;;;;;0.15;0.10;;;;;;;15.74;100.00;101577.81;5035555;28;20047;-73
2022/07/07 03:57:59;;;;;;;4.47;0.88;;;;;;;15.73;100.00;101568.16;5039533;28;20409;-74
2022/07/07 04:00:24;;;;;;;4.47;0.57;;;;;;;15.76;100.00;101580.28;5018394;28;20330;-75
2022/07/07 04:02:49;;;;;;;2.15;0.40;;;;;;;15.76;100.00;101593.59;5033232;28;20029;-74
2022/07/07 04:05:15;;;;;;;6.03;0.73;;;;;;;15.69;100.00;101595.22;5035853;28;20547;-74
2022/07/07 04:07:40;;;;;;;5.57;1.10;;;;;;;15.59;100.00;101598.03;5034600;28;20044;-74
2022/07/07 04:10:06;;;;;;;0.98;0.22;;;;;;;15.50;100.00;101591.84;5035698;28;20498;-74
2022/07/07 04:12:32;;;;;;;2.63;0.10;;;;;;;15.46;100.00;101582.56;5034939;28;20476;-73
2022/07/07 04:14:57;;;;;;;1.75;0.57;;;;;;;15.54;100.00;101600.34;5024236;28;20114;-73
2022/07/07 04:17:22;;;;;;;0.63;0.63;;;;;;;15.48;100.00;101596.50;5038897;28;20025;-73
2022/07/07 04:19:48;;;;;;;2.17;0.60;;;;;;;15.43;100.00;101604.16;5042659;28;20032;-73
2022/07/07 04:22:13;;;;;;;1.65;1.55;;;;;;;15.43;100.00;101610.31;5034653;28;20065;-73
2022/07/07 04:24:39;;;;;;;3.92;0.30;;;;;;;15.42;100.00;101605.16;5035486;28;20086;-73
2022/07/07 04:27:05;;;;;;;3.92;0.60;;;;;;;15.41;100.00;101608.81;5036206;28;20653;-73
2022/07/07 04:29:31;;;;;;;1.65;0.55;;;;;;;15.43;100.00;101612.13;5031835;28;20121;-73
2022/07/07 04:31:56;;;;;;;1.25;0.73;;;;;;;15.40;100.00;101607.16;5034616;28;20108;-74
2022/07/07 04:34:24;;;;;;;0.85;0.45;;;;;;;15.46;100.00;101618.97;5035961;28;20039;-75
2022/07/07 04:36:50;;;;;;;1.65;0.75;;;;;;;15.45;100.00;101623.44;5035098;28;20053;-74
2022/07/07 04:39:15;;;;;;;5.80;0.60;;;;;;;15.21;100.00;101602.94;5037663;28;20610;-74
2022/07/07 04:41:40;;;;;;;4.78;0.40;;;;;;;15.36;100.00;101635.06;5036237;28;20041;-74
2022/07/07 04:44:06;;;;;;;1.10;0.57;;;;;;;15.31;100.00;101637.38;5036746;28;20042;-74
2022/07/07 04:46:32;;;;;;;5.45;0.82;;;;;;;15.18;100.00;101628.03;5035297;28;20017;-74
2022/07/07 04:48:57;;;;;;;4.03;0.57;;;;;;;15.24;100.00;101637.19;5035887;28;20174;-74
2022/07/07 04:51:23;;;;;;;2.67;0.88;;;;;;;15.30;100.00;101646.34;5033968;28;20450;-74
2022/07/07 04:53:49;;;;;;;2.42;0.55;;;;;;;15.29;100.00;101644.69;5032915;28;20053;-74
2022/07/07 04:56:14;;;;;;;3.03;0.40;;;;;;;15.23;100.00;101630.22;5028827;28;20025;-74
2022/07/07 04:58:41;;;;;;;1.45;0.70;;;;;;;15.28;100.00;101637.69;5020245;28;20047;-74
2022/07/07 05:01:07;;;;;;;4.78;1.95;;;;;;;15.28;100.00;101651.00;5030276;28;20026;-74
2022/07/07 05:03:32;;;;;;;0.90;0.35;;;;;;;15.29;100.00;101650.03;5033968;28;20040;-73
2022/07/07 05:05:58;;;;;;;5.53;1.77;;;;;;;15.24;100.00;101647.81;5036913;28;20489;-74
2022/07/07 05:08:23;;;;;;;4.13;1.80;;;;;;;15.27;100.00;101657.31;5010850;28;20448;-74
2022/07/07 05:10:48;;;;;;;4.88;1.02;;;;;;;15.29;100.00;101661.47;5026484;28;20116;-74
2022/07/07 05:13:14;;;;;;;2.83;0.85;;;;;;;15.28;100.00;101661.63;5032592;28;20112;-74
2022/07/07 05:15:39;;;;;;;1.67;0.60;;;;;;;15.34;100.00;101668.97;5029741;28;20072;-75
2022/07/07 05:18:05;;;;;;;3.58;0.65;;;;;;;15.39;100.00;101666.66;5032377;28;20559;-75
2022/07/07 05:20:30;;;;;;;5.00;1.25;;;;;;;15.36;100.00;101681.13;5031186;28;20049;-75
2022/07/07 05:22:55;;;;;;;5.10;0.95;;;;;;;15.39;100.00;101677.28;5034546;28;20576;-74
2022/07/07 05:25:21;;;;;;;3.88;0.90;;;;;;;15.27;100.00;101668.78;5034676;28;20038;-74
2022/07/07 05:27:48;;;;;;;2.30;0.95;;;;;;;15.41;100.00;101692.09;5027599;28;20079;-74
2022/07/07 05:30:13;;;;;;;3.58;0.75;;;;;;;15.43;100.00;101689.28;5027915;28;20041;-74
2022/07/07 05:32:39;;;;;;;10.27;0.77;;;;;;;15.34;100.00;101688.41;5027354;28;20582;-74
2022/07/07 05:35:05;;;;;;;5.78;0.90;;;;;;;15.42;100.00;101700.94;5027538;28;20036;-74
2022/07/07 05:37:30;;;;;;;3.72;0.55;;;;;;;15.44;100.00;101701.59;5031120;28;20422;-74
2022/07/07 05:39:56;;;;;;;6.15;1.48;;;;;;;15.28;100.00;101688.22;5029892;28;20105;-74
2022/07/07 05:42:21;;;;;;;2.03;0.73;;;;;;;15.25;100.00;101697.38;5030357;28;20041;-74
2022/07/07 05:44:47;;;;;;;9.60;0.93;;;;;;;15.34;100.00;101715.03;5028694;28;20057;-74
2022/07/07 05:47:12;;;;;;;1.33;0.60;;;;;;;15.38;100.00;101718.19;5027197;28;20165;-74
2022/07/07 05:49:38;;;;;;;4.28;0.93;;;;;;;15.37;100.00;101713.84;5028115;28;20053;-74
2022/07/07 05:52:04;;;;;;;3.45;0.68;;;;;;;15.32;100.00;101718.84;5031487;28;20042;-74
2022/07/07 05:54:29;;;;;;;0.98;0.73;;;;;;;15.34;100.00;101727.50;5012967;28;20430;-74
2022/07/07 05:56:55;;;;;;;2.95;0.85;;;;;;;15.34;100.00;101708.88;5036870;28;20082;-74
2022/07/07 05:59:21;;;;;;;1.67;0.50;;;;;;;15.39;100.00;101726.00;5035168;28;20029;-78
2022/07/07 06:01:46;;;;;;;3.40;1.08;;;;;;;15.47;100.00;101722.56;5036337;28;20673;-75
2022/07/07 06:04:12;;;;;;;2.90;0.40;;;;;;;15.42;100.00;101709.75;5036656;28;20025;-75
2022/07/07 06:06:37;;;;;;;3.50;0.63;;;;;;;15.56;100.00;101737.53;5039667;28;20037;-76
2022/07/07 06:09:03;;;;;;;3.40;0.50;;;;;;;15.63;100.00;101738.59;5038305;28;20029;-76
2022/07/07 06:11:28;;;;;;;0.40;0.25;;;;;;;15.77;100.00;101739.81;5042052;28;20029;-76
2022/07/07 06:13:53;;;;;;;1.85;0.60;;;;;;;15.78;100.00;101735.31;5034186;28;20140;-76
2022/07/07 06:16:38;;;;;;;0.93;0.43;;;;;;;15.91;100.00;101748.97;5036447;28;20029;-76
2022/07/07 06:19:04;;;;;;;1.02;0.40;;;;;;;15.97;100.00;101756.31;5036823;28;20508;-76
2022/07/07 06:21:29;;;;;;;2.28;0.63;;;;;;;15.93;100.00;101765.63;5038316;28;20048;-76
2022/07/07 06:23:55;;;;;;;0.68;0.30;;;;;;;15.90;100.00;101768.63;5034237;28;20029;-76
2022/07/07 06:26:20;;;;;;;1.45;0.55;;;;;;;15.79;100.00;101771.59;5025352;28;20026;-75
2022/07/07 06:28:46;;;;;;;3.72;0.75;;;;;;;15.78;100.00;101772.56;5038767;28;20041;-76
2022/07/07 06:31:11;;;;;;;0.85;0.85;;;;;;;15.82;100.00;101779.25;5036585;28;20482;-76
2022/07/07 06:33:36;;;;;;;2.15;0.68;;;;;;;15.81;100.00;101766.94;5036955;28;20516;-76
2022/07/07 06:36:02;;;;;;;1.05;0.45;;;;;;;15.90;98.89;101781.13;5038236;28;20063;-76
2022/07/07 06:38:27;;;;;;;1.30;0.43;;;;;;;15.90;98.51;101784.59;5035803;28;20094;-76
2022/07/07 06:40:57;;;;;;;2.28;0.80;;;;;;;16.07;98.34;101789.94;5043920;28;20489;-76
2022/07/07 06:43:22;;;;;;;1.67;0.35;;;;;;;16.27;96.36;101794.00;5031145;28;20045;-75
2022/07/07 06:45:48;;;;;;;3.47;0.47;;;;;;;16.44;95.56;101798.34;5022530;28;20036;-76
2022/07/07 06:48:13;;;;;;;1.00;0.68;;;;;;;16.52;95.50;101802.84;5036832;28;20036;-75
2022/07/07 06:50:38;;;;;;;3.30;0.43;;;;;;;16.45;95.44;101807.16;5038399;28;20029;-75
2022/07/07 06:53:04;;;;;;;2.47;0.57;;;;;;;16.33;96.88;101804.00;5036200;28;20092;-75
2022/07/07 06:55:30;;;;;;;0.30;0.10;;;;;;;16.28;97.12;101800.97;5039295;28;20044;-75
2022/07/07 06:57:55;;;;;;;0.60;0.40;;;;;;;16.69;97.50;101801.00;5035269;28;20079;-75
2022/07/07 07:00:20;;;;;;;9.25;2.83;;;;;;;17.45;94.31;101778.38;5032856;28;20477;-75
2022/07/07 07:02:48;;;;;;;4.13;1.05;;;;;;;18.46;90.87;101800.69;5033868;28;20071;-75
2022/07/07 07:05:13;;;;;;;0.47;0.20;;;;;;;18.38;88.41;101807.94;5035206;28;20036;-76
2022/07/07 07:07:38;;;;;;;2.63;0.90;;;;;;;18.25;88.56;101816.59;5036555;28;20029;-76
2022/07/07 07:10:04;;;;;;;1.77;0.43;;;;;;;17.94;88.56;101801.38;5037654;28;20466;-75
2022/07/07 07:12:30;;;;;;;3.08;1.27;;;;;;;17.93;89.19;101817.59;5043032;28;20033;-75
2022/07/07 07:14:55;;;;;;;1.25;0.60;;;;;;;17.90;91.31;101824.13;5043882;28;20025;-75
2022/07/07 07:17:21;;;;;;;2.80;0.32;;;;;;;18.24;91.85;101817.56;5040451;28;20024;-75
2022/07/07 07:19:46;;;;;;;0.40;0.38;;;;;;;18.96;89.92;101819.03;5037595;28;20037;-75
2022/07/07 07:22:11;;;;;;;2.15;0.50;;;;;;;19.35;87.15;101840.22;5037932;28;20040;-75
2022/07/07 07:24:37;;;;;;;2.97;0.55;;;;;;;19.15;85.03;101829.22;5041275;28;20037;-75
2022/07/07 07:27:02;;;;;;;1.13;0.40;;;;;;;18.93;85.94;101840.81;5038635;28;20052;-75
2022/07/07 07:29:27;;;;;;;0.50;0.10;;;;;;;18.70;87.09;101841.63;5042490;28;20068;-75
2022/07/07 07:31:53;;;;;;;2.85;0.40;;;;;;;18.76;86.75;101848.94;5033600;28;20029;-75
2022/07/07 07:34:18;;;;;;;0.20;0.10;;;;;;;18.70;87.33;101830.94;5041958;28;20029;-75
2022/07/07 07:36:44;;;;;;;0.22;0.17;;;;;;;18.79;86.22;101855.78;5039750;28;20116;-75
2022/07/07 07:39:09;;;;;;;2.15;0.32;;;;;;;18.75;87.20;101858.00;5042887;28;20374;-75
2022/07/07 07:41:34;;;;;;;0.28;0.10;;;;;;;18.89;87.34;101861.75;5043114;28;20524;-75
2022/07/07 07:44:00;;;;;;;0.30;0.20;;;;;;;19.03;87.87;101873.47;5042223;28;20115;-75
2022/07/07 07:46:25;;;;;;;3.10;0.77;;;;;;;18.97;87.05;101875.06;5034927;28;20022;-75
2022/07/07 07:48:50;;;;;;;0.10;0.10;;;;;;;18.97;87.65;101880.41;5039014;28;20040;-75
2022/07/07 07:51:16;;;;;;;0.88;0.45;;;;;;;19.15;87.33;101877.41;5034466;28;20550;-75
2022/07/07 07:53:42;;;;;;;0.28;0.25;;;;;;;20.11;85.03;101878.34;5041626;28;20061;-75
2022/07/07 07:56:07;;;;;;;0.68;0.52;;;;;;;19.98;84.71;101864.78;5033299;28;20103;-75
2022/07/07 07:58:33;;;;;;;3.22;0.60;;;;;;;19.59;86.45;101884.63;5037622;28;20025;-75
2022/07/07 08:00:58;;;;;;;0.10;0.10;;;;;;;19.16;86.57;101888.91;5023307;28;20476;-75
2022/07/07 08:03:24;;;;;;;1.10;0.10;;;;;;;18.99;88.56;101893.56;5033948;28;20041;-75
2022/07/07 08:05:49;;;;;;;1.80;0.40;;;;;;;19.25;88.54;101877.97;5038210;28;20104;-75
2022/07/07 08:08:15;;;;;;;0.05;0.00;;;;;;;19.62;87.73;101894.13;5030721;28;20041;-76
2022/07/07 08:10:41;;;;;;;3.17;0.20;;;;;;;19.78;86.13;101893.19;5033847;28;20037;-75
2022/07/07 08:13:06;;;;;;;2.30;0.15;;;;;;;20.54;83.94;101899.84;5044086;28;20404;-75
2022/07/07 08:15:32;;;;;;;2.72;0.52;;;;;;;20.89;81.76;101891.97;5035252;28;20152;-75
2022/07/07 08:17:57;;;;;;;0.70;0.47;;;;;;;21.03;79.84;101908.19;5038036;28;20099;-75
2022/07/07 08:20:23;;;;;;;0.60;0.20;;;;;;;21.03;80.48;101898.25;5038500;28;20017;-75
2022/07/07 08:22:48;;;;;;;1.67;0.45;;;;;;;20.69;79.09;101890.97;5043093;28;20026;-75
2022/07/07 08:25:14;;;;;;;2.67;0.30;;;;;;;20.46;81.21;101920.59;5019526;28;20031;-75
2022/07/07 08:27:39;;;;;;;0.32;0.20;;;;;;;19.95;85.43;101932.16;5031389;28;20033;-76
2022/07/07 08:30:05;;;;;;;2.08;0.32;;;;;;;19.76;85.72;101928.16;5034446;28;20037;-76
2022/07/07 08:32:31;;;;;;;1.52;0.25;;;;;;;19.65;86.28;101916.03;5031424;28;20481;-76
2022/07/07 08:34:57;;;;;;;0.40;0.22;;;;;;;20.02;86.10;101927.69;5032693;28;20037;-75
2022/07/07 08:37:22;;;;;;;0.75;0.30;;;;;;;21.23;84.24;101925.28;5040063;28;20028;-75
2022/07/07 08:39:47;;;;;;;0.10;0.10;;;;;;;22.28;78.19;101936.91;5042104;28;20108;-75
2022/07/07 08:42:13;;;;;;;1.15;0.55;;;;;;;23.22;75.44;101923.66;5022625;28;20065;-75
2022/07/07 08:44:38;;;;;;;2.22;0.40;;;;;;;23.77;71.96;101906.16;5036667;28;20222;-75
2022/07/07 08:47:04;;;;;;;0.77;0.43;;;;;;;24.01;69.65;101930.75;5023198;28;20030;-75
2022/07/07 08:49:30;;;;;;;2.45;0.45;;;;;;;23.69;71.48;101933.31;5034944;28;20040;-75
2022/07/07 08:51:56;;;;;;;3.30;0.50;;;;;;;22.74;74.00;101946.16;5041557;28;20040;-75
2022/07/07 08:54:24;;;;;;;0.88;0.50;;;;;;;22.07;76.83;101950.44;5033650;28;20045;-75
2022/07/07 08:56:50;;;;;;;2.28;0.60;;;;;;;21.85;79.07;101917.47;5038272;28;20378;-75
2022/07/07 08:59:17;;;;;;;1.35;0.40;;;;;;;22.09;77.37;101951.91;5021581;28;20025;-75
2022/07/07 09:01:53;;;;;;;4.18;0.47;;;;;;;21.80;76.04;101947.63;5035940;28;20076;-75
2022/07/07 09:04:18;;;;;;;0.80;0.77;;;;;;;21.65;77.14;101968.41;5038903;28;20021;-75
2022/07/07 09:06:54;;;;;;;2.80;0.55;;;;;;;21.59;76.51;101956.56;5033513;28;20029;-75
2022/07/07 09:09:41;;;;;;;0.50;0.30;;;;;;;21.97;76.01;101964.22;5035811;28;20029;-75
2022/07/07 09:12:08;;;;;;;1.50;0.43;;;;;;;22.39;76.94;101978.53;5035452;28;20188;-75
2022/07/07 09:14:40;;;;;;;4.07;0.57;;;;;;;21.76;76.02;101973.22;5035367;28;20021;-75
2022/07/07 09:17:31;;;;;;;1.10;0.52;;;;;;;21.49;76.99;101983.78;5040452;28;20013;-75
2022/07/07 09:20:03;;;;;;;2.90;0.60;;;;;;;21.30;77.61;101977.19;5041990;28;20381;-75
2022/07/07 09:22:46;;;;;;;0.68;0.17;;;;;;;21.25;77.38;101981.47;5038067;28;20029;-75
2022/07/07 09:25:13;;;;;;;2.45;0.40;;;;;;;21.56;77.52;101984.66;5037186;28;20525;-75
2022/07/07 09:27:49;;;;;;;4.60;0.50;;;;;;;21.40;77.71;101986.75;5032778;28;20033;-75
2022/07/07 09:30:45;;;;;;;0.22;0.17;;;;;;;20.92;78.27;102011.50;5040741;28;20032;-75
2022/07/07 09:33:21;;;;;;;0.32;0.20;;;;;;;20.52;79.04;102000.28;5033850;28;20079;-75
2022/07/07 09:38:34;;;;;;;1.55;0.75;;;;;;;20.67;79.77;102016.41;5037557;28;20610;-75
2022/07/07 09:41:08;;;;;;;1.88;0.90;;;;;;;20.86;78.69;102010.44;5021331;28;20079;-75
2022/07/07 09:43:36;;;;;;;1.23;0.30;;;;;;;20.22;82.39;102034.34;5038659;28;20162;-75
2022/07/07 09:46:11;;;;;;;3.10;0.63;;;;;;;19.69;86.13;102045.06;5045281;28;20036;-76
2022/07/07 09:48:39;;;;;;;2.25;0.60;;;;;;;19.52;86.96;102050.53;5040233;28;20036;-75
2022/07/07 09:51:24;;;;;;;5.55;0.60;;;;;;;19.66;87.89;102051.63;5041809;28;20397;-75
2022/07/07 09:54:06;;;;;;;0.30;0.10;;;;;;;19.89;85.92;102058.81;5039412;28;20087;-75
2022/07/07 09:56:37;;;;;;;4.95;0.55;;;;;;;20.25;85.25;102055.41;5040543;28;20378;-75
2022/07/07 09:59:08;;;;;;;2.20;0.28;;;;;;;19.93;85.87;102060.09;5036056;28;20017;-76
2022/07/07 10:01:36;;;;;;;2.15;0.47;;;;;;;19.63;86.98;102086.78;5034343;28;20087;-76
2022/07/07 10:04:06;;;;;;;4.22;0.73;;;;;;;19.63;87.22;102078.75;5037136;28;20047;-77
2022/07/07 10:06:33;;;;;;;3.55;0.88;;;;;;;19.18;87.01;102079.56;5034256;28;20216;-75
2022/07/07 10:09:07;;;;;;;1.75;1.15;;;;;;;19.13;85.98;102101.50;5032485;28;20057;-76
2022/07/07 10:11:36;;;;;;;4.03;0.70;;;;;;;19.31;85.07;102102.09;5038238;28;20025;-75
2022/07/07 10:14:16;;;;;;;4.45;0.60;;;;;;;19.99;84.79;102096.03;5046118;28;20025;-75
2022/07/07 10:16:44;;;;;;;3.05;0.65;;;;;;;20.50;80.73;102105.06;5045753;28;20376;-75
2022/07/07 10:19:12;;;;;;;0.90;0.40;;;;;;;20.10;79.54;102123.25;5037653;28;20024;-75
2022/07/07 10:21:41;;;;;;;6.20;0.82;;;;;;;20.20;78.62;102122.97;5020006;28;20074;-75
2022/07/07 10:24:07;;;;;;;2.90;0.50;;;;;;;20.04;77.57;102115.94;5038513;28;20033;-75
2022/07/07 10:26:41;;;;;;;1.95;1.55;;;;;;;19.81;78.06;102115.94;5039315;28;20078;-75
2022/07/07 10:29:08;;;;;;;3.92;1.27;;;;;;;19.88;78.29;102141.03;5040584;28;20017;-76
2022/07/07 10:31:34;;;;;;;2.90;0.38;;;;;;;20.00;77.73;102138.75;5038322;28;20433;-76
2022/07/07 10:34:09;;;;;;;4.20;0.90;;;;;;;20.09;77.64;102161.78;5042285;28;20020;-76
2022/07/07 10:36:59;;;;;;;2.70;0.70;;;;;;;19.93;75.32;102148.53;5037977;28;20040;-75
2022/07/07 10:39:27;;;;;;;2.05;0.98;;;;;;;19.92;74.33;102157.56;5042120;28;20511;-75
2022/07/07 10:42:14;;;;;;;1.30;0.52;;;;;;;20.16;73.51;102158.38;5045854;28;20461;-75
2022/07/07 10:44:42;;;;;;;1.65;0.70;;;;;;;20.32;71.94;102163.59;5040209;28;20489;-75
2022/07/07 10:47:16;;;;;;;4.28;1.15;;;;;;;20.16;71.14;102163.72;5045887;28;20122;-75
2022/07/07 10:49:45;;;;;;;3.45;1.00;;;;;;;20.32;70.54;102180.50;5037961;28;20025;-76
2022/07/07 10:52:22;;;;;;;4.90;0.95;;;;;;;20.39;69.09;102169.88;5043259;28;20125;-74
2022/07/07 10:54:54;;;;;;;4.95;0.85;;;;;;;20.73;68.18;102181.94;5036159;28;20140;-74
2022/07/07 10:57:21;;;;;;;;;;;;;;;21.10;68.40;102188.22;5036858;28;20036;-74
2022/07/07 10:59:59;;;;;;;3.53;0.40;;;;;;;21.48;66.92;102190.78;5034296;28;19909;-74
2022/07/07 11:03:07;;;;;;;4.60;0.98;;;;;;;21.63;63.68;102196.09;5040182;28;20033;-74
2022/07/07 11:05:34;;;;;;;3.00;0.50;;;;;;;21.82;63.96;102202.69;5035659;28;20017;-74
2022/07/07 11:07:59;;;;;;;4.95;0.75;;;;;;;22.09;62.08;102209.16;5039187;28;20539;-75
2022/07/07 11:10:40;;;;;;;3.85;0.50;;;;;;;22.04;63.50;102208.91;5028400;28;20025;-75
2022/07/07 11:13:21;;;;;;;10.15;0.95;;;;;;;21.86;63.53;102214.72;5033586;28;20429;-75
2022/07/07 11:16:08;;;;;;;;;;;;;;;21.77;63.90;102228.31;5038804;28;20494;-73
2022/07/07 11:18:34;;;;;;;5.97;0.75;;;;;;;21.35;63.88;102229.84;5045522;28;19909;-75
2022/07/07 11:21:03;;;;;;;6.35;1.25;;;;;;;21.22;65.32;102234.22;5039478;28;20504;-75
2022/07/07 11:23:47;;;;;;;2.42;1.02;;;;;;;21.24;64.51;102232.19;5038085;28;20531;-75
2022/07/07 11:26:16;;;;;;;2.40;0.77;;;;;;;21.21;64.69;102236.09;5036027;28;20021;-75
2022/07/07 11:28:42;;;;;;;2.50;0.40;;;;;;;21.07;65.42;102244.97;5029282;28;20025;-75